
Distance (Route):
Temperature : 7.2°C
Humidity : 0%
Pressure : 0hPa| Receiver | Frames | First received | Last received |
|---|---|---|---|
| KE7DJD | 131 | 2026-09-02 15:18:27 | 2026-09-02 16:05:10 |
| Receiver | Date | Latitude | Longitude | Direction | Speed | Altitude | Climb | Temperature | Humidity | Pressure | Voltage | Killtimer | Uptime | BKT | XDATA |
|---|---|---|---|---|---|---|---|---|---|---|---|---|---|---|---|
| KE7DJD | 2026-09-02 16:05:10 | 45.13512 | -117.97945 | 9° | 37km/h | 3435m | -7.9m/s | 7.2°C | 0% | 0hPa | 0V | 00:00:00 | 00:00:00 | 00:00:00 | |
| KE7DJD | 2026-09-02 16:04:49 | 45.13319 | -117.97980 | 14° | 40km/h | 3593m | -8.8m/s | 5.7°C | 0% | 0hPa | 0V | 00:00:00 | 00:00:00 | 00:00:00 | |
| KE7DJD | 2026-09-02 16:04:28 | 45.13119 | -117.98032 | 12° | 38km/h | 3759m | -9.2m/s | 4.1°C | 0% | 0hPa | 0V | 00:00:00 | 00:00:00 | 00:00:00 | |
| KE7DJD | 2026-09-02 16:04:08 | 45.12915 | -117.98107 | 19° | 46km/h | 3929m | -8.2m/s | 2.9°C | 0% | 0hPa | 0V | 00:00:00 | 00:00:00 | 00:00:00 | |
| KE7DJD | 2026-09-02 16:03:48 | 45.12693 | -117.98208 | 25° | 42km/h | 4107m | -9.0m/s | 2.2°C | 0% | 0hPa | 0V | 00:00:00 | 00:00:00 | 00:00:00 | |
| KE7DJD | 2026-09-02 16:03:26 | 45.12475 | -117.98345 | 22° | 46km/h | 4278m | -8.0m/s | 0.6°C | 0% | 0hPa | 0V | 00:00:00 | 00:00:00 | 00:00:00 | |
| KE7DJD | 2026-09-02 16:03:05 | 45.12253 | -117.98460 | 20° | 44km/h | 4449m | -8.1m/s | -1.0°C | 0% | 0hPa | 0V | 00:00:00 | 00:00:00 | 00:00:00 | |
| KE7DJD | 2026-09-02 16:02:45 | 45.12027 | -117.98583 | 25° | 47km/h | 4623m | -8.3m/s | -2.1°C | 0% | 0hPa | 0V | 00:00:00 | 00:00:00 | 00:00:00 | |
| KE7DJD | 2026-09-02 16:02:24 | 45.11784 | -117.98752 | 26° | 51km/h | 4797m | -8.4m/s | -3.2°C | 0% | 0hPa | 0V | 00:00:00 | 00:00:00 | 00:00:00 | |
| KE7DJD | 2026-09-02 16:02:03 | 45.11553 | -117.98897 | 27° | 47km/h | 4965m | -8.3m/s | -4.6°C | 0% | 0hPa | 0V | 00:00:00 | 00:00:00 | 00:00:00 | |
| KE7DJD | 2026-09-02 16:01:43 | 45.11330 | -117.99061 | 29° | 46km/h | 5140m | -8.1m/s | -5.2°C | 0% | 0hPa | 0V | 00:00:00 | 00:00:00 | 00:00:00 | |
| KE7DJD | 2026-09-02 16:01:22 | 45.11138 | -117.99214 | 28° | 40km/h | 5308m | -8.3m/s | -5.9°C | 0% | 0hPa | 0V | 00:00:00 | 00:00:00 | 00:00:00 | |
| KE7DJD | 2026-09-02 16:00:41 | 45.10745 | -117.99473 | 26° | 47km/h | 5669m | -9.1m/s | -8.6°C | 0% | 0hPa | 0V | 00:00:00 | 00:00:00 | 00:00:00 | |
| KE7DJD | 2026-09-02 16:00:21 | 45.10495 | -117.99621 | 19° | 53km/h | 5856m | -8.6m/s | -10.0°C | 0% | 0hPa | 0V | 00:00:00 | 00:00:00 | 00:00:00 | |
| KE7DJD | 2026-09-02 15:59:59 | 45.10208 | -117.99726 | 14° | 57km/h | 6043m | -9.0m/s | -11.5°C | 0% | 0hPa | 0V | 00:00:00 | 00:00:00 | 00:00:00 | |
| KE7DJD | 2026-09-02 15:59:38 | 45.09904 | -117.99815 | 11° | 62km/h | 6234m | -9.0m/s | -13.1°C | 0% | 0hPa | 0V | 00:00:00 | 00:00:00 | 00:00:00 | |
| KE7DJD | 2026-09-02 15:59:18 | 45.09569 | -117.99873 | 7° | 66km/h | 6425m | -9.1m/s | -14.9°C | 0% | 0hPa | 0V | 00:00:00 | 00:00:00 | 00:00:00 | |
| KE7DJD | 2026-09-02 15:58:57 | 45.09219 | -117.99913 | 3° | 68km/h | 6617m | -9.2m/s | -16.5°C | 0% | 0hPa | 0V | 00:00:00 | 00:00:00 | 00:00:00 | |
| KE7DJD | 2026-09-02 15:58:36 | 45.08864 | -117.99872 | 353° | 73km/h | 6802m | -9.4m/s | -17.8°C | 0% | 0hPa | 0V | 00:00:00 | 00:00:00 | 00:00:00 | |
| KE7DJD | 2026-09-02 15:58:16 | 45.08484 | -117.99747 | 343° | 73km/h | 7001m | -9.8m/s | -19.1°C | 0% | 0hPa | 0V | 00:00:00 | 00:00:00 | 00:00:00 | |
| KE7DJD | 2026-09-02 15:57:55 | 45.08127 | -117.99557 | 337° | 68km/h | 7200m | -9.2m/s | -20.9°C | 0% | 0hPa | 0V | 00:00:00 | 00:00:00 | 00:00:00 | |
| KE7DJD | 2026-09-02 15:57:34 | 45.07814 | -117.99338 | 331° | 66km/h | 7396m | -9.3m/s | -22.7°C | 0% | 0hPa | 0V | 00:00:00 | 00:00:00 | 00:00:00 | |
| KE7DJD | 2026-09-02 15:57:13 | 45.07502 | -117.99103 | 335° | 69km/h | 7586m | -9.6m/s | -23.8°C | 0% | 0hPa | 0V | 00:00:00 | 00:00:00 | 00:00:00 | |
| KE7DJD | 2026-09-02 15:56:53 | 45.07178 | -117.98867 | 332° | 73km/h | 7779m | -9.2m/s | -25.3°C | 0% | 0hPa | 0V | 00:00:00 | 00:00:00 | 00:00:00 | |
| KE7DJD | 2026-09-02 15:56:33 | 45.06838 | -117.98583 | 330° | 73km/h | 7976m | -9.6m/s | -26.8°C | 0% | 0hPa | 0V | 00:00:00 | 00:00:00 | 00:00:00 | |
| KE7DJD | 2026-09-02 15:56:12 | 45.06520 | -117.98298 | 327° | 75km/h | 8167m | -9.4m/s | -28.5°C | 0% | 0hPa | 0V | 00:00:00 | 00:00:00 | 00:00:00 | |
| KE7DJD | 2026-09-02 15:55:52 | 45.06199 | -117.97968 | 328° | 78km/h | 8379m | -10.1m/s | -30.3°C | 0% | 0hPa | 0V | 00:00:00 | 00:00:00 | 00:00:00 | |
| KE7DJD | 2026-09-02 15:55:31 | 45.05842 | -117.97669 | 333° | 80km/h | 8593m | -11.1m/s | -31.2°C | 0% | 0hPa | 0V | 00:00:00 | 00:00:00 | 00:00:00 | |
| KE7DJD | 2026-09-02 15:55:11 | 45.05503 | -117.97480 | 339° | 69km/h | 8818m | -9.8m/s | -32.4°C | 0% | 0hPa | 0V | 00:00:00 | 00:00:00 | 00:00:00 | |
| KE7DJD | 2026-09-02 15:54:50 | 45.05212 | -117.97317 | 339° | 51km/h | 9002m | -10.8m/s | -34.2°C | 0% | 0hPa | 0V | 00:00:00 | 00:00:00 | 00:00:00 | |
| KE7DJD | 2026-09-02 15:54:30 | 45.04967 | -117.97174 | 340° | 49km/h | 9211m | -10.8m/s | -36.3°C | 0% | 0hPa | 0V | 00:00:00 | 00:00:00 | 00:00:00 | |
| KE7DJD | 2026-09-02 15:54:09 | 45.04701 | -117.97130 | 7° | 57km/h | 9423m | -11.2m/s | -38.3°C | 0% | 0hPa | 0V | 00:00:00 | 00:00:00 | 00:00:00 | |
| KE7DJD | 2026-09-02 15:53:49 | 45.04456 | -117.97199 | 19° | 42km/h | 9657m | -10.4m/s | -39.8°C | 0% | 0hPa | 0V | 00:00:00 | 00:00:00 | 00:00:00 | |
| KE7DJD | 2026-09-02 15:53:28 | 45.04285 | -117.97313 | 44° | 33km/h | 9872m | -10.9m/s | -40.3°C | 0% | 0hPa | 0V | 00:00:00 | 00:00:00 | 00:00:00 | |
| KE7DJD | 2026-09-02 15:53:08 | 45.04167 | -117.97499 | 38° | 31km/h | 10107m | -11.2m/s | -41.6°C | 0% | 0hPa | 0V | 00:00:00 | 00:00:00 | 00:00:00 | |
| KE7DJD | 2026-09-02 15:52:46 | 45.04069 | -117.97639 | 64° | 27km/h | 10347m | -11.9m/s | -42.8°C | 0% | 0hPa | 0V | 00:00:00 | 00:00:00 | 00:00:00 | |
| KE7DJD | 2026-09-02 15:52:26 | 45.04020 | -117.97794 | 58° | 18km/h | 10589m | -11.9m/s | -43.4°C | 0% | 0hPa | 0V | 00:00:00 | 00:00:00 | 00:00:00 | |
| KE7DJD | 2026-09-02 15:52:06 | 45.03932 | -117.97925 | 51° | 31km/h | 10851m | -12.5m/s | -44.2°C | 0% | 0hPa | 0V | 00:00:00 | 00:00:00 | 00:00:00 | |
| KE7DJD | 2026-09-02 15:51:45 | 45.03811 | -117.98079 | 36° | 38km/h | 11108m | -13.0m/s | -43.8°C | 0% | 0hPa | 0V | 00:00:00 | 00:00:00 | 00:00:00 | |
| KE7DJD | 2026-09-02 15:51:24 | 45.03630 | -117.98247 | 38° | 42km/h | 11379m | -12.5m/s | -42.8°C | 0% | 0hPa | 0V | 00:00:00 | 00:00:00 | 00:00:00 | |
| KE7DJD | 2026-09-02 15:51:04 | 45.03478 | -117.98499 | 58° | 47km/h | 11640m | -13.1m/s | -43.0°C | 0% | 0hPa | 0V | 00:00:00 | 00:00:00 | 00:00:00 | |
| KE7DJD | 2026-09-02 15:50:44 | 45.03330 | -117.98756 | 46° | 47km/h | 11921m | -13.1m/s | -42.3°C | 0% | 0hPa | 0V | 00:00:00 | 00:00:00 | 00:00:00 | |
| KE7DJD | 2026-09-02 15:50:23 | 45.03092 | -117.99030 | 44° | 60km/h | 12211m | -13.9m/s | -43.0°C | 0% | 0hPa | 0V | 00:00:00 | 00:00:00 | 00:00:00 | |
| KE7DJD | 2026-09-02 15:50:03 | 45.02916 | -117.99356 | 56° | 57km/h | 12500m | -14.0m/s | -42.3°C | 0% | 0hPa | 0V | 00:00:00 | 00:00:00 | 00:00:00 | |
| KE7DJD | 2026-09-02 15:49:42 | 45.02739 | -117.99675 | 49° | 49km/h | 12764m | -12.9m/s | -42.3°C | 0% | 0hPa | 0V | 00:00:00 | 00:00:00 | 00:00:00 | |
| KE7DJD | 2026-09-02 15:49:22 | 45.02544 | -117.99978 | 49° | 53km/h | 13038m | -12.9m/s | -42.5°C | 0% | 0hPa | 0V | 00:00:00 | 00:00:00 | 00:00:00 | |
| KE7DJD | 2026-09-02 15:49:01 | 45.02370 | -118.00236 | 39° | 47km/h | 13298m | -12.3m/s | -42.6°C | 0% | 0hPa | 0V | 00:00:00 | 00:00:00 | 00:00:00 | |
| KE7DJD | 2026-09-02 15:48:41 | 45.02187 | -118.00471 | 43° | 53km/h | 13566m | -13.5m/s | -42.2°C | 0% | 0hPa | 0V | 00:00:00 | 00:00:00 | 00:00:00 | |
| KE7DJD | 2026-09-02 15:48:20 | 45.01964 | -118.00721 | 35° | 58km/h | 13842m | -12.4m/s | -42.9°C | 0% | 0hPa | 0V | 00:00:00 | 00:00:00 | 00:00:00 | |
| KE7DJD | 2026-09-02 15:48:00 | 45.01683 | -118.01024 | 42° | 68km/h | 14127m | -15.5m/s | -44.5°C | 0% | 0hPa | 0V | 00:00:00 | 00:00:00 | 00:00:00 | |
| KE7DJD | 2026-09-02 15:47:38 | 45.01434 | -118.01348 | 49° | 68km/h | 14455m | -18.6m/s | -43.3°C | 0% | 0hPa | 0V | 00:00:00 | 00:00:00 | 00:00:00 | |
| KE7DJD | 2026-09-02 15:47:17 | 45.01207 | -118.01688 | 35° | 58km/h | 14862m | -20.5m/s | -43.1°C | 0% | 0hPa | 0V | 00:00:00 | 00:00:00 | 00:00:00 | |
| KE7DJD | 2026-09-02 15:46:57 | 45.01003 | -118.01976 | 56° | 49km/h | 15276m | -18.7m/s | -44.0°C | 0% | 0hPa | 0V | 00:00:00 | 00:00:00 | 00:00:00 | |
| KE7DJD | 2026-09-02 15:46:36 | 45.00781 | -118.02234 | 33° | 60km/h | 15642m | -17.4m/s | -43.3°C | 0% | 0hPa | 0V | 00:00:00 | 00:00:00 | 00:00:00 | |
| KE7DJD | 2026-09-02 15:45:54 | 45.00318 | -118.02736 | 30° | 44km/h | 16383m | -15.7m/s | -42.8°C | 0% | 0hPa | 0V | 00:00:00 | 00:00:00 | 00:00:00 | |
| KE7DJD | 2026-09-02 15:45:33 | 45.00073 | -118.02912 | 37° | 60km/h | 16738m | -17.1m/s | -43.2°C | 0% | 0hPa | 0V | 00:00:00 | 00:00:00 | 00:00:00 | |
| KE7DJD | 2026-09-02 15:45:13 | 44.99839 | -118.03119 | 33° | 40km/h | 17118m | -19.9m/s | -43.8°C | 0% | 0hPa | 0V | 00:00:00 | 00:00:00 | 00:00:00 | |
| KE7DJD | 2026-09-02 15:44:53 | 44.99675 | -118.03247 | 39° | 47km/h | 17456m | -19.4m/s | -43.7°C | 0% | 0hPa | 0V | 00:00:00 | 00:00:00 | 00:00:00 | |
| KE7DJD | 2026-09-02 15:44:32 | 44.99499 | -118.03458 | 31° | 51km/h | 17789m | -17.4m/s | -44.0°C | 0% | 0hPa | 0V | 00:00:00 | 00:00:00 | 00:00:00 | |
| KE7DJD | 2026-09-02 15:44:12 | 44.99211 | -118.03654 | 43° | 38km/h | 18138m | 0.3m/s | -45.8°C | 0% | 0hPa | 0V | 00:00:00 | 00:00:00 | 00:00:00 | |
| KE7DJD | 2026-09-02 15:43:51 | 44.98957 | -118.03822 | 18° | 53km/h | 18004m | 7.0m/s | -45.2°C | 0% | 0hPa | 0V | 00:00:00 | 00:00:00 | 00:00:00 | |
| KE7DJD | 2026-09-02 15:43:10 | 44.98415 | -118.04233 | 41° | 46km/h | 17711m | 7.7m/s | -43.7°C | 0% | 0hPa | 0V | 00:00:00 | 00:00:00 | 00:00:00 | |
| KE7DJD | 2026-09-02 15:42:50 | 44.98245 | -118.04466 | 49° | 46km/h | 17577m | 6.2m/s | -43.1°C | 0% | 0hPa | 0V | 00:00:00 | 00:00:00 | 00:00:00 | |
| KE7DJD | 2026-09-02 15:42:29 | 44.98066 | -118.04703 | 38° | 49km/h | 17453m | 7.2m/s | -43.2°C | 0% | 0hPa | 0V | 00:00:00 | 00:00:00 | 00:00:00 | |
| KE7DJD | 2026-09-02 15:42:09 | 44.97857 | -118.04903 | 38° | 33km/h | 17318m | 7.7m/s | -43.3°C | 0% | 0hPa | 0V | 00:00:00 | 00:00:00 | 00:00:00 | |
| KE7DJD | 2026-09-02 15:41:48 | 44.97689 | -118.05029 | 26° | 38km/h | 17194m | 5.3m/s | -43.4°C | 0% | 0hPa | 0V | 00:00:00 | 00:00:00 | 00:00:00 | |
| KE7DJD | 2026-09-02 15:41:28 | 44.97480 | -118.05219 | 33° | 47km/h | 17060m | 4.3m/s | -43.6°C | 0% | 0hPa | 0V | 00:00:00 | 00:00:00 | 00:00:00 | |
| KE7DJD | 2026-09-02 15:41:07 | 44.97248 | -118.05414 | 20° | 58km/h | 16935m | 7.2m/s | -42.8°C | 0% | 0hPa | 0V | 00:00:00 | 00:00:00 | 00:00:00 | |
| KE7DJD | 2026-09-02 15:40:25 | 44.96703 | -118.05915 | 41° | 58km/h | 16691m | 5.8m/s | -42.8°C | 0% | 0hPa | 0V | 00:00:00 | 00:00:00 | 00:00:00 | |
| KE7DJD | 2026-09-02 15:40:05 | 44.96458 | -118.06116 | 34° | 55km/h | 16576m | 5.6m/s | -42.5°C | 0% | 0hPa | 0V | 00:00:00 | 00:00:00 | 00:00:00 | |
| KE7DJD | 2026-09-02 15:39:44 | 44.96224 | -118.06269 | 25° | 51km/h | 16458m | 5.6m/s | -42.6°C | 0% | 0hPa | 0V | 00:00:00 | 00:00:00 | 00:00:00 | |
| KE7DJD | 2026-09-02 15:39:24 | 44.96045 | -118.06432 | 43° | 57km/h | 16340m | 3.5m/s | -42.8°C | 0% | 0hPa | 0V | 00:00:00 | 00:00:00 | 00:00:00 | |
| KE7DJD | 2026-09-02 15:39:04 | 44.95880 | -118.06699 | 52° | 53km/h | 16220m | 7.6m/s | -42.8°C | 0% | 0hPa | 0V | 00:00:00 | 00:00:00 | 00:00:00 | |
| KE7DJD | 2026-09-02 15:38:42 | 44.95675 | -118.07004 | 49° | 62km/h | 16100m | 7.0m/s | -42.4°C | 0% | 0hPa | 0V | 00:00:00 | 00:00:00 | 00:00:00 | |
| KE7DJD | 2026-09-02 15:38:21 | 44.95438 | -118.07322 | 48° | 60km/h | 15990m | 4.7m/s | -42.6°C | 0% | 0hPa | 0V | 00:00:00 | 00:00:00 | 00:00:00 | |
| KE7DJD | 2026-09-02 15:38:01 | 44.95225 | -118.07568 | 33° | 53km/h | 15876m | 4.2m/s | -42.6°C | 0% | 0hPa | 0V | 00:00:00 | 00:00:00 | 00:00:00 | |
| KE7DJD | 2026-09-02 15:37:39 | 44.94985 | -118.07825 | 46° | 49km/h | 15758m | 5.6m/s | -42.9°C | 0% | 0hPa | 0V | 00:00:00 | 00:00:00 | 00:00:00 | |
| KE7DJD | 2026-09-02 15:37:19 | 44.94755 | -118.08029 | 32° | 55km/h | 15655m | 6.2m/s | -43.4°C | 0% | 0hPa | 0V | 00:00:00 | 00:00:00 | 00:00:00 | |
| KE7DJD | 2026-09-02 15:36:59 | 44.94513 | -118.08260 | 35° | 53km/h | 15537m | 4.3m/s | -44.1°C | 0% | 0hPa | 0V | 00:00:00 | 00:00:00 | 00:00:00 | |
| KE7DJD | 2026-09-02 15:36:38 | 44.94330 | -118.08499 | 49° | 42km/h | 15426m | 4.7m/s | -44.0°C | 0% | 0hPa | 0V | 00:00:00 | 00:00:00 | 00:00:00 | |
| KE7DJD | 2026-09-02 15:36:18 | 44.94202 | -118.08782 | 62° | 38km/h | 15295m | 7.4m/s | -44.1°C | 0% | 0hPa | 0V | 00:00:00 | 00:00:00 | 00:00:00 | |
| KE7DJD | 2026-09-02 15:35:57 | 44.94056 | -118.09098 | 56° | 62km/h | 15177m | 5.3m/s | -43.7°C | 0% | 0hPa | 0V | 00:00:00 | 00:00:00 | 00:00:00 | |
| KE7DJD | 2026-09-02 15:35:37 | 44.93884 | -118.09423 | 50° | 47km/h | 15053m | 8.3m/s | -43.0°C | 0% | 0hPa | 0V | 00:00:00 | 00:00:00 | 00:00:00 | |
| KE7DJD | 2026-09-02 15:35:16 | 44.93688 | -118.09698 | 39° | 53km/h | 14925m | 7.8m/s | -42.3°C | 0% | 0hPa | 0V | 00:00:00 | 00:00:00 | 00:00:00 | |
| KE7DJD | 2026-09-02 15:34:54 | 44.93456 | -118.09947 | 32° | 51km/h | 14795m | 3.8m/s | -42.7°C | 0% | 0hPa | 0V | 00:00:00 | 00:00:00 | 00:00:00 | |
| KE7DJD | 2026-09-02 15:34:34 | 44.93249 | -118.10206 | 50° | 60km/h | 14668m | 4.3m/s | -42.2°C | 0% | 0hPa | 0V | 00:00:00 | 00:00:00 | 00:00:00 | |
| KE7DJD | 2026-09-02 15:34:13 | 44.93054 | -118.10571 | 51° | 69km/h | 14550m | 5.6m/s | -43.1°C | 0% | 0hPa | 0V | 00:00:00 | 00:00:00 | 00:00:00 | |
| KE7DJD | 2026-09-02 15:33:52 | 44.92845 | -118.10916 | 51° | 60km/h | 14418m | 5.8m/s | -42.9°C | 0% | 0hPa | 0V | 00:00:00 | 00:00:00 | 00:00:00 | |
| KE7DJD | 2026-09-02 15:33:32 | 44.92603 | -118.11214 | 43° | 57km/h | 14293m | 4.8m/s | -43.2°C | 0% | 0hPa | 0V | 00:00:00 | 00:00:00 | 00:00:00 | |
| KE7DJD | 2026-09-02 15:33:11 | 44.92379 | -118.11462 | 40° | 58km/h | 14148m | 9.3m/s | -43.8°C | 0% | 0hPa | 0V | 00:00:00 | 00:00:00 | 00:00:00 | |
| KE7DJD | 2026-09-02 15:32:50 | 44.92113 | -118.11772 | 42° | 69km/h | 14018m | 5.0m/s | -43.5°C | 0% | 0hPa | 0V | 00:00:00 | 00:00:00 | 00:00:00 | |
| KE7DJD | 2026-09-02 15:32:29 | 44.91847 | -118.12045 | 38° | 75km/h | 13894m | 4.8m/s | -42.9°C | 0% | 0hPa | 0V | 00:00:00 | 00:00:00 | 00:00:00 | |
| KE7DJD | 2026-09-02 15:32:09 | 44.91579 | -118.12267 | 34° | 57km/h | 13752m | 7.0m/s | -41.8°C | 0% | 0hPa | 0V | 00:00:00 | 00:00:00 | 00:00:00 | |
| KE7DJD | 2026-09-02 15:31:48 | 44.91353 | -118.12514 | 40° | 44km/h | 13625m | 7.2m/s | -41.2°C | 0% | 0hPa | 0V | 00:00:00 | 00:00:00 | 00:00:00 | |
| KE7DJD | 2026-09-02 15:31:28 | 44.91151 | -118.12759 | 40° | 55km/h | 13508m | 6.2m/s | -41.6°C | 0% | 0hPa | 0V | 00:00:00 | 00:00:00 | 00:00:00 | |
| KE7DJD | 2026-09-02 15:31:08 | 44.90999 | -118.13032 | 55° | 46km/h | 13380m | 5.3m/s | -41.9°C | 0% | 0hPa | 0V | 00:00:00 | 00:00:00 | 00:00:00 | |
| KE7DJD | 2026-09-02 15:30:47 | 44.90848 | -118.13281 | 45° | 47km/h | 13268m | 6.7m/s | -41.8°C | 0% | 0hPa | 0V | 00:00:00 | 00:00:00 | 00:00:00 | |
| KE7DJD | 2026-09-02 15:30:27 | 44.90669 | -118.13557 | 56° | 44km/h | 13148m | 8.6m/s | -42.0°C | 0% | 0hPa | 0V | 00:00:00 | 00:00:00 | 00:00:00 | |
| KE7DJD | 2026-09-02 15:30:06 | 44.90531 | -118.13893 | 53° | 60km/h | 13031m | 5.2m/s | -41.8°C | 0% | 0hPa | 0V | 00:00:00 | 00:00:00 | 00:00:00 | |
| KE7DJD | 2026-09-02 15:29:46 | 44.90344 | -118.14232 | 64° | 55km/h | 12901m | 4.1m/s | -41.4°C | 0% | 0hPa | 0V | 00:00:00 | 00:00:00 | 00:00:00 | |
| KE7DJD | 2026-09-02 15:29:25 | 44.90160 | -118.14597 | 55° | 57km/h | 12774m | 7.2m/s | -41.1°C | 0% | 0hPa | 0V | 00:00:00 | 00:00:00 | 00:00:00 | |
| KE7DJD | 2026-09-02 15:29:05 | 44.90002 | -118.14913 | 58° | 57km/h | 12660m | 5.1m/s | -41.3°C | 0% | 0hPa | 0V | 00:00:00 | 00:00:00 | 00:00:00 | |
| KE7DJD | 2026-09-02 15:28:44 | 44.89837 | -118.15221 | 59° | 62km/h | 12535m | 8.8m/s | -41.8°C | 0% | 0hPa | 0V | 00:00:00 | 00:00:00 | 00:00:00 | |
| KE7DJD | 2026-09-02 15:28:24 | 44.89683 | -118.15578 | 60° | 60km/h | 12413m | 7.8m/s | -42.7°C | 0% | 0hPa | 0V | 00:00:00 | 00:00:00 | 00:00:00 | |
| KE7DJD | 2026-09-02 15:27:42 | 44.89312 | -118.16351 | 39° | 69km/h | 12150m | 9.0m/s | -42.4°C | 0% | 0hPa | 0V | 00:00:00 | 00:00:00 | 00:00:00 | |
| KE7DJD | 2026-09-02 15:27:22 | 44.89054 | -118.16611 | 35° | 60km/h | 12008m | 6.2m/s | -42.0°C | 0% | 0hPa | 0V | 00:00:00 | 00:00:00 | 00:00:00 | |
| KE7DJD | 2026-09-02 15:27:01 | 44.88843 | -118.16853 | 41° | 49km/h | 11885m | 3.8m/s | -41.5°C | 0% | 0hPa | 0V | 00:00:00 | 00:00:00 | 00:00:00 | |
| KE7DJD | 2026-09-02 15:26:41 | 44.88679 | -118.17121 | 52° | 69km/h | 11764m | 7.3m/s | -42.7°C | 0% | 0hPa | 0V | 00:00:00 | 00:00:00 | 00:00:00 | |
| KE7DJD | 2026-09-02 15:26:20 | 44.88539 | -118.17351 | 73° | 71km/h | 11602m | 12.5m/s | -42.1°C | 0% | 0hPa | 0V | 00:00:00 | 00:00:00 | 00:00:00 | |
| KE7DJD | 2026-09-02 15:26:00 | 44.88408 | -118.17701 | 51° | 84km/h | 11424m | 7.1m/s | -41.2°C | 0% | 0hPa | 0V | 00:00:00 | 00:00:00 | 00:00:00 | |
| KE7DJD | 2026-09-02 15:25:19 | 44.88094 | -118.18047 | 23° | 29km/h | 11100m | 7.0m/s | -42.1°C | 0% | 0hPa | 0V | 00:00:00 | 00:00:00 | 00:00:00 | |
| KE7DJD | 2026-09-02 15:24:58 | 44.87965 | -118.18158 | 30° | 26km/h | 10991m | 4.8m/s | -42.7°C | 0% | 0hPa | 0V | 00:00:00 | 00:00:00 | 00:00:00 | |
| KE7DJD | 2026-09-02 15:24:38 | 44.87861 | -118.18258 | 348° | 20km/h | 10859m | 6.0m/s | -43.1°C | 0% | 0hPa | 0V | 00:00:00 | 00:00:00 | 00:00:00 | |
| KE7DJD | 2026-09-02 15:24:17 | 44.87779 | -118.18509 | 42° | 68km/h | 10691m | 5.5m/s | -43.0°C | 0% | 0hPa | 0V | 00:00:00 | 00:00:00 | 00:00:00 | |
| KE7DJD | 2026-09-02 15:23:57 | 44.87688 | -118.18766 | 68° | 35km/h | 10524m | 7.3m/s | -42.2°C | 0% | 0hPa | 0V | 00:00:00 | 00:00:00 | 00:00:00 | |
| KE7DJD | 2026-09-02 15:23:36 | 44.87601 | -118.18972 | 63° | 40km/h | 10381m | 7.8m/s | -41.9°C | 0% | 0hPa | 0V | 00:00:00 | 00:00:00 | 00:00:00 | |
| KE7DJD | 2026-09-02 15:23:16 | 44.87561 | -118.19163 | 53° | 38km/h | 10230m | 5.0m/s | -41.8°C | 0% | 0hPa | 0V | 00:00:00 | 00:00:00 | 00:00:00 | |
| KE7DJD | 2026-09-02 15:22:55 | 44.87500 | -118.19400 | 78° | 11km/h | 10074m | 10.1m/s | -41.0°C | 0% | 0hPa | 0V | 00:00:00 | 00:00:00 | 00:00:00 | |
| KE7DJD | 2026-09-02 15:22:35 | 44.87406 | -118.19585 | 44° | 47km/h | 9899m | 4.8m/s | -40.2°C | 0% | 0hPa | 0V | 00:00:00 | 00:00:00 | 00:00:00 | |
| KE7DJD | 2026-09-02 15:22:13 | 44.87307 | -118.19867 | 40° | 64km/h | 9733m | 7.7m/s | -39.0°C | 0% | 0hPa | 0V | 00:00:00 | 00:00:00 | 00:00:00 | |
| KE7DJD | 2026-09-02 15:21:53 | 44.87172 | -118.20122 | 30° | 68km/h | 9563m | 8.0m/s | -38.5°C | 0% | 0hPa | 0V | 00:00:00 | 00:00:00 | 00:00:00 | |
| KE7DJD | 2026-09-02 15:21:32 | 44.86956 | -118.20239 | 34° | 73km/h | 9401m | 9.1m/s | -37.9°C | 0% | 0hPa | 0V | 00:00:00 | 00:00:00 | 00:00:00 | |
| KE7DJD | 2026-09-02 15:21:12 | 44.86682 | -118.20333 | 11° | 46km/h | 9236m | 11.1m/s | -36.9°C | 0% | 0hPa | 0V | 00:00:00 | 00:00:00 | 00:00:00 | |
| KE7DJD | 2026-09-02 15:20:52 | 44.86325 | -118.20329 | 9° | 68km/h | 9055m | 7.6m/s | -35.7°C | 0% | 0hPa | 0V | 00:00:00 | 00:00:00 | 00:00:00 | |
| KE7DJD | 2026-09-02 15:20:31 | 44.85963 | -118.20286 | 4° | 77km/h | 8897m | 5.3m/s | -34.4°C | 0% | 0hPa | 0V | 00:00:00 | 00:00:00 | 00:00:00 | |
| KE7DJD | 2026-09-02 15:20:10 | 44.85611 | -118.20138 | 343° | 99km/h | 8735m | 8.7m/s | -33.5°C | 0% | 0hPa | 0V | 00:00:00 | 00:00:00 | 00:00:00 | |
| KE7DJD | 2026-09-02 15:19:50 | 44.85242 | -118.19854 | 327° | 66km/h | 8593m | 6.7m/s | -33.2°C | 0% | 0hPa | 0V | 00:00:00 | 00:00:00 | 00:00:00 | |
| KE7DJD | 2026-09-02 15:19:29 | 44.84888 | -118.19525 | 312° | 88km/h | 8451m | 3.9m/s | -31.9°C | 0% | 0hPa | 0V | 00:00:00 | 00:00:00 | 00:00:00 | |
| KE7DJD | 2026-09-02 15:19:09 | 44.84579 | -118.19166 | 310° | 89km/h | 8321m | 7.8m/s | -30.7°C | 0% | 0hPa | 0V | 00:00:00 | 00:00:00 | 00:00:00 | |
| KE7DJD | 2026-09-02 15:18:49 | 44.84223 | -118.18816 | 326° | 91km/h | 8174m | 4.2m/s | -29.5°C | 0% | 0hPa | 0V | 00:00:00 | 00:00:00 | 00:00:00 | |
| KE7DJD | 2026-09-02 15:18:27 | 44.83901 | -118.18407 | 317° | 55km/h | 8030m | 6.8m/s | -28.1°C | 0% | 0hPa | 0V | 00:00:00 | 00:00:00 | 00:00:00 |